createdAt,value
2023-07-04T00:01:11.998Z,95466.66
2023-07-04T00:03:43.661Z,95467.50
2023-07-04T00:06:13.641Z,95472.72
2023-07-04T00:08:40.716Z,95472.88
2023-07-04T00:11:09.582Z,95462.34
2023-07-04T00:13:38.370Z,95461.47
2023-07-04T00:16:10.852Z,95456.69
2023-07-04T00:18:40.596Z,95445.44
2023-07-04T00:21:13.907Z,95442.38
2023-07-04T00:23:43.156Z,95440.75
2023-07-04T00:26:10.096Z,95451.78
2023-07-04T00:28:39.924Z,95448.50
2023-07-04T00:31:08.729Z,95437.38
2023-07-04T00:33:35.577Z,95442.66
2023-07-04T00:36:18.658Z,95441.00
2023-07-04T00:38:52.877Z,95445.06
2023-07-04T00:41:24.066Z,95446.09
2023-07-04T00:44:00.144Z,95452.69
2023-07-04T00:46:41.079Z,95456.38
2023-07-04T00:49:24.201Z,95455.09
2023-07-04T00:52:09.760Z,95462.25
2023-07-04T00:54:53.684Z,95458.97
2023-07-04T00:57:28.527Z,95465.28
2023-07-04T01:00:01.704Z,95457.75
2023-07-04T01:02:35.437Z,95471.97
2023-07-04T01:05:06.441Z,95473.56
2023-07-04T01:07:46.932Z,95476.34
2023-07-04T01:10:23.219Z,95476.56
2023-07-04T01:12:50.047Z,95480.16
2023-07-04T01:15:18.486Z,95494.00
2023-07-04T01:17:45.174Z,95483.69
2023-07-04T01:20:17.663Z,95498.94
2023-07-04T01:23:02.960Z,95502.50
2023-07-04T01:25:53.892Z,95498.84
2023-07-04T01:28:21.408Z,95507.03
2023-07-04T01:30:48.681Z,95501.34
2023-07-04T01:33:16.751Z,95502.41
2023-07-04T01:35:44.211Z,95499.06
2023-07-04T01:38:14.210Z,95507.06
2023-07-04T01:40:40.829Z,95507.06
2023-07-04T01:43:08.127Z,95504.59
2023-07-04T01:45:34.789Z,95505.06
2023-07-04T01:48:01.398Z,95514.78
2023-07-04T01:50:28.055Z,95518.78
2023-07-04T01:52:54.681Z,95525.53
2023-07-04T01:55:21.446Z,95522.63
2023-07-04T01:57:48.333Z,95514.88
2023-07-04T02:00:17.789Z,95509.75
2023-07-04T02:02:44.593Z,95525.34
2023-07-04T02:05:11.423Z,95524.38
2023-07-04T02:07:37.858Z,95532.34
2023-07-04T02:10:04.853Z,95538.84
2023-07-04T02:12:31.304Z,95544.44
2023-07-04T02:14:57.805Z,95548.06
2023-07-04T02:17:24.361Z,95545.31
2023-07-04T02:19:51.106Z,95549.25
2023-07-04T02:22:17.638Z,95551.06
2023-07-04T02:24:44.120Z,95553.44
2023-07-04T02:27:10.635Z,95552.81
2023-07-04T02:29:37.167Z,95549.56
2023-07-04T02:32:04.007Z,95558.50
2023-07-04T02:34:30.581Z,95557.19
2023-07-04T02:36:57.099Z,95556.53
2023-07-04T02:39:27.261Z,95550.72
2023-07-04T02:41:53.868Z,95547.97
2023-07-04T02:44:20.292Z,95556.06
2023-07-04T02:46:46.835Z,95556.06
2023-07-04T02:49:13.404Z,95547.28
2023-07-04T02:51:40.161Z,95559.91
2023-07-04T02:54:06.710Z,95556.66
2023-07-04T02:56:33.415Z,95555.00
2023-07-04T02:58:59.909Z,95554.19
2023-07-04T03:01:26.419Z,95557.38
2023-07-04T03:03:53.070Z,95535.97
2023-07-04T03:06:20.324Z,95535.56
2023-07-04T03:08:46.855Z,95535.19
2023-07-04T03:11:13.619Z,95530.41
2023-07-04T03:13:40.198Z,95532.78
2023-07-04T03:16:06.901Z,95530.13
2023-07-04T03:18:34.746Z,95532.84
2023-07-04T03:21:01.377Z,95530.88
2023-07-04T03:23:27.923Z,95539.25
2023-07-04T03:25:54.474Z,95546.72
2023-07-04T03:28:21.067Z,95551.13
2023-07-04T03:30:47.579Z,95552.78
2023-07-04T03:33:14.204Z,95552.00
2023-07-04T03:35:57.258Z,95556.78
2023-07-04T03:38:26.401Z,95562.31
2023-07-04T03:40:54.110Z,95557.97
2023-07-04T03:43:21.023Z,95561.53
2023-07-04T03:45:47.792Z,95553.53
2023-07-04T03:48:14.498Z,95562.19
2023-07-04T03:50:41.356Z,95572.31
2023-07-04T03:53:08.807Z,95568.03
2023-07-04T03:55:35.803Z,95574.78
2023-07-04T03:58:03.366Z,95577.25
2023-07-04T04:00:30.193Z,95586.81
2023-07-04T04:02:57.165Z,95589.22
2023-07-04T04:05:23.861Z,95590.69
2023-07-04T04:07:50.424Z,95591.06
2023-07-04T04:10:18.145Z,95591.16
2023-07-04T04:12:44.971Z,95593.50
2023-07-04T04:15:12.713Z,95595.31
2023-07-04T04:17:39.408Z,95604.03
2023-07-04T04:20:07.884Z,95604.88
2023-07-04T04:22:35.191Z,95599.41
2023-07-04T04:25:02.023Z,95598.63
2023-07-04T04:27:28.612Z,95605.72
2023-07-04T04:29:55.295Z,95608.84
2023-07-04T04:32:23.439Z,95615.31
2023-07-04T04:34:50.183Z,95623.22
2023-07-04T04:37:17.294Z,95620.06
2023-07-04T04:39:44.693Z,95607.31
2023-07-04T04:42:15.361Z,95610.66
2023-07-04T04:44:43.508Z,95623.78
2023-07-04T04:47:10.061Z,95613.94
2023-07-04T04:49:36.636Z,95616.59
2023-07-04T04:52:03.408Z,95604.97
2023-07-04T04:54:31.216Z,95630.50
2023-07-04T04:56:58.001Z,95624.97
2023-07-04T04:59:24.770Z,95625.66
2023-07-04T05:01:51.296Z,95621.75
2023-07-04T05:04:18.474Z,95620.88
2023-07-04T05:06:44.951Z,95627.72
2023-07-04T05:09:13.621Z,95635.44
2023-07-04T05:11:40.128Z,95635.50
2023-07-04T05:14:07.177Z,95641.72
2023-07-04T05:16:33.697Z,95627.47
2023-07-04T05:19:00.384Z,95633.41
2023-07-04T05:21:26.989Z,95639.41
2023-07-04T05:23:53.967Z,95636.91
2023-07-04T05:26:26.133Z,95632.69
2023-07-04T05:28:53.585Z,95638.66
2023-07-04T05:31:27.310Z,95634.41
2023-07-04T05:33:55.521Z,95641.63
2023-07-04T05:36:24.560Z,95639.63
2023-07-04T05:38:53.448Z,95639.53
2023-07-04T05:41:23.050Z,95632.81
2023-07-04T05:43:50.653Z,95639.25
2023-07-04T05:46:19.083Z,95631.31
2023-07-04T05:48:45.745Z,95634.53
2023-07-04T05:51:15.767Z,95639.31
2023-07-04T05:53:46.595Z,95632.94
2023-07-04T05:56:18.807Z,95631.31
2023-07-04T05:58:47.810Z,95636.22
2023-07-04T06:01:21.623Z,95639.78
2023-07-04T06:03:48.539Z,95641.28
2023-07-04T06:06:35.094Z,95649.09
2023-07-04T06:09:04.696Z,95648.47
2023-07-04T06:11:34.597Z,95648.59
2023-07-04T06:14:05.022Z,95645.03
2023-07-04T06:16:32.069Z,95649.78
2023-07-04T06:18:58.682Z,95646.88
2023-07-04T06:21:38.292Z,95654.75
2023-07-04T06:24:11.011Z,95656.16
2023-07-04T06:26:37.893Z,95654.19
2023-07-04T06:29:04.337Z,95648.25
2023-07-04T06:31:30.938Z,95654.78
2023-07-04T06:33:58.105Z,95648.41
2023-07-04T06:36:25.717Z,95652.88
2023-07-04T06:38:53.224Z,95650.19
2023-07-04T06:41:20.454Z,95651.28
2023-07-04T06:43:48.145Z,95649.19
2023-07-04T06:46:20.113Z,95636.28
2023-07-04T06:48:48.488Z,95642.16
2023-07-04T06:51:18.119Z,95636.06
2023-07-04T06:53:46.238Z,95645.38
2023-07-04T06:56:15.638Z,95644.81
2023-07-04T06:58:46.632Z,95643.59
2023-07-04T07:01:13.415Z,95645.22
2023-07-04T07:03:40.890Z,95648.41
2023-07-04T07:06:10.279Z,95655.63
2023-07-04T07:08:38.089Z,95664.34
2023-07-04T07:11:12.863Z,95667.06
2023-07-04T07:13:41.023Z,95663.31
2023-07-04T07:18:42.799Z,95665.25
2023-07-04T07:21:11.581Z,95660.50
2023-07-04T07:23:40.009Z,95668.59
2023-07-04T07:26:09.418Z,95662.13
2023-07-04T07:28:40.991Z,95656.81
2023-07-04T07:31:11.150Z,95667.50
2023-07-04T07:33:41.078Z,95662.25
2023-07-04T07:36:16.243Z,95664.50
2023-07-04T07:38:43.809Z,95658.78
2023-07-04T07:41:11.206Z,95665.81
2023-07-04T07:43:39.289Z,95665.06
2023-07-04T07:46:14.360Z,95669.09
2023-07-04T07:48:41.935Z,95661.63
2023-07-04T07:51:11.686Z,95657.53
2023-07-04T07:53:40.008Z,95659.00
2023-07-04T07:56:08.736Z,95648.66
2023-07-04T07:58:36.345Z,95651.81
2023-07-04T08:01:13.453Z,95654.50
2023-07-04T08:03:40.591Z,95656.34
2023-07-04T08:06:11.108Z,95651.28
2023-07-04T08:08:37.717Z,95644.66
2023-07-04T08:11:04.280Z,95650.22
2023-07-04T08:13:31.003Z,95649.28
2023-07-04T08:15:57.570Z,95649.03
2023-07-04T08:18:25.462Z,95644.00
2023-07-04T08:20:59.922Z,95645.66
2023-07-04T08:23:26.713Z,95641.03
2023-07-04T08:25:53.685Z,95647.44
2023-07-04T08:28:22.798Z,95645.91
2023-07-04T08:30:52.442Z,95650.22
2023-07-04T08:33:20.145Z,95656.44
2023-07-04T08:36:02.085Z,95660.56
2023-07-04T08:38:29.190Z,95667.78
2023-07-04T08:40:56.424Z,95657.94
2023-07-04T08:43:45.277Z,95667.44
2023-07-04T08:46:14.628Z,95661.50
2023-07-04T08:48:43.501Z,95664.59
2023-07-04T08:51:14.489Z,95665.78
2023-07-04T08:53:44.505Z,95654.72
2023-07-04T08:56:35.440Z,95656.75
2023-07-04T08:59:29.620Z,95651.19
2023-07-04T09:02:30.527Z,95646.28
2023-07-04T09:05:06.062Z,95649.13
2023-07-04T09:07:47.016Z,95643.03
2023-07-04T09:10:53.056Z,95646.38
2023-07-04T09:13:42.322Z,95642.78
2023-07-04T09:16:13.908Z,95648.41
2023-07-04T09:18:53.777Z,95636.69
2023-07-04T09:21:22.520Z,95648.88
2023-07-04T09:23:51.307Z,95646.56
2023-07-04T09:26:22.216Z,95645.44
2023-07-04T09:28:52.274Z,95645.50
2023-07-04T09:31:46.388Z,95640.84
2023-07-04T09:34:33.150Z,95650.13
2023-07-04T09:37:04.728Z,95648.09
2023-07-04T09:42:46.973Z,95637.97
2023-07-04T09:45:23.586Z,95640.09
2023-07-04T09:47:50.473Z,95635.78
2023-07-04T09:50:26.395Z,95638.44
2023-07-04T09:53:06.580Z,95641.03
2023-07-04T09:55:33.308Z,95635.97
2023-07-04T09:58:24.584Z,95641.56
2023-07-04T10:01:12.343Z,95631.38
2023-07-04T10:03:42.717Z,95625.09
2023-07-04T10:06:11.808Z,95630.66
2023-07-04T10:08:55.758Z,95627.34
2023-07-04T10:11:41.058Z,95621.50
2023-07-04T10:14:11.468Z,95619.91
2023-07-04T10:16:46.270Z,95615.38
2023-07-04T10:19:16.174Z,95605.16
2023-07-04T10:21:44.731Z,95601.34
2023-07-04T10:24:17.556Z,95606.53
2023-07-04T10:26:48.072Z,95602.53
2023-07-04T10:29:16.655Z,95596.28
2023-07-04T10:31:43.738Z,95598.75
2023-07-04T10:34:15.947Z,95611.56
2023-07-04T10:36:44.455Z,95597.69
2023-07-04T10:39:15.833Z,95600.41
2023-07-04T10:41:53.644Z,95604.16
2023-07-04T10:44:25.158Z,95597.63
2023-07-04T10:47:01.534Z,95601.19
2023-07-04T10:49:31.657Z,95592.13
2023-07-04T10:52:15.666Z,95587.25
2023-07-04T10:54:42.381Z,95577.09
2023-07-04T10:57:24.762Z,95583.25
2023-07-04T10:59:57.323Z,95587.00
2023-07-04T11:02:39.178Z,95584.38
2023-07-04T11:05:17.498Z,95579.13
2023-07-04T11:07:45.615Z,95580.88
2023-07-04T11:10:14.872Z,95579.88
2023-07-04T11:12:44.052Z,95571.44
2023-07-04T11:15:25.070Z,95579.59
2023-07-04T11:17:51.843Z,95575.63
2023-07-04T11:20:24.095Z,95563.88
2023-07-04T11:23:02.177Z,95571.06
2023-07-04T11:25:32.258Z,95575.63
2023-07-04T11:28:17.363Z,95567.72
2023-07-04T11:30:46.827Z,95563.31
2023-07-04T11:33:54.901Z,95564.13
2023-07-04T11:36:59.976Z,95555.28
2023-07-04T11:39:32.923Z,95550.94
2023-07-04T11:42:15.936Z,95553.84
2023-07-04T11:44:53.079Z,95561.06
2023-07-04T11:47:39.061Z,95562.00
2023-07-04T11:50:13.412Z,95562.34
2023-07-04T11:52:46.875Z,95552.91
2023-07-04T11:55:17.839Z,95538.50
2023-07-04T11:58:00.494Z,95543.91
2023-07-04T12:00:33.659Z,95540.88
2023-07-04T12:03:20.843Z,95536.78
2023-07-04T12:05:53.320Z,95536.69
2023-07-04T12:08:30.094Z,95536.84
2023-07-04T12:11:00.896Z,95530.16
2023-07-04T12:13:31.671Z,95529.00
2023-07-04T12:16:04.853Z,95533.03
2023-07-04T12:18:40.721Z,95525.72
2023-07-04T12:21:11.308Z,95522.88
2023-07-04T12:23:40.200Z,95526.44
2023-07-04T12:26:09.846Z,95516.44
2023-07-04T12:28:39.381Z,95514.66
2023-07-04T12:33:45.717Z,95511.91
2023-07-04T12:36:16.901Z,95508.84
2023-07-04T12:38:54.677Z,95499.66
2023-07-04T12:47:21.200Z,95489.03
2023-07-04T12:49:50.755Z,95497.31
2023-07-04T12:52:18.951Z,95486.38
2023-07-04T12:54:50.118Z,95490.94
2023-07-04T12:57:23.095Z,95490.91
2023-07-04T12:59:51.249Z,95490.81
2023-07-04T13:02:27.283Z,95479.34
2023-07-04T13:04:58.984Z,95467.72
2023-07-04T13:07:26.672Z,95462.53
2023-07-04T13:10:05.461Z,95464.53
2023-07-04T13:12:58.010Z,95461.69
2023-07-04T13:15:29.265Z,95454.16
2023-07-04T13:18:02.560Z,95450.38
2023-07-04T13:20:32.415Z,95445.75
2023-07-04T13:25:54.821Z,95442.25
2023-07-04T13:34:31.866Z,95453.03
2023-07-04T13:37:03.370Z,95448.06
2023-07-04T13:42:05.925Z,95436.56
2023-07-04T13:47:09.881Z,95440.88
2023-07-04T13:49:43.622Z,95442.56
2023-07-04T13:52:13.642Z,95442.56
2023-07-04T13:54:40.861Z,95444.97
2023-07-04T13:57:08.066Z,95439.53
2023-07-04T13:59:35.156Z,95433.81
2023-07-04T14:07:04.455Z,95419.84
2023-07-04T14:09:32.447Z,95423.91
2023-07-04T14:11:59.760Z,95424.81
2023-07-04T14:21:59.581Z,95416.53
2023-07-04T14:24:26.951Z,95426.38
2023-07-04T14:26:56.619Z,95414.72
2023-07-04T14:29:26.483Z,95414.53
2023-07-04T14:31:53.940Z,95417.75
2023-07-04T14:34:22.218Z,95413.25
2023-07-04T14:36:49.898Z,95410.69
2023-07-04T14:39:17.276Z,95404.72
2023-07-04T14:44:14.659Z,95396.16
2023-07-04T14:46:44.829Z,95399.06
2023-07-04T14:49:12.207Z,95389.38
2023-07-04T14:51:39.521Z,95389.59
2023-07-04T14:54:07.134Z,95400.94
2023-07-04T14:56:45.678Z,95392.03
2023-07-04T14:59:18.232Z,95388.81
2023-07-04T15:01:45.610Z,95390.13
2023-07-04T15:04:13.181Z,95390.81
2023-07-04T15:06:40.366Z,95393.38
2023-07-04T15:09:07.577Z,95393.06
2023-07-04T15:11:35.151Z,95409.53
2023-07-04T15:14:02.866Z,95397.91
2023-07-04T15:16:30.442Z,95399.34
2023-07-04T15:18:57.742Z,95403.53
2023-07-04T15:21:27.557Z,95399.97
2023-07-04T15:23:54.798Z,95404.91
2023-07-04T15:26:26.884Z,95406.41
2023-07-04T15:28:56.753Z,95402.28
2023-07-04T15:31:25.457Z,95403.00
2023-07-04T15:33:54.660Z,95399.09
2023-07-04T15:36:24.467Z,95397.88
2023-07-04T15:38:52.629Z,95398.06
2023-07-04T15:41:22.677Z,95398.13
2023-07-04T15:43:50.314Z,95390.59
2023-07-04T15:46:18.080Z,95382.78
2023-07-04T15:48:46.246Z,95382.78
2023-07-04T15:51:16.231Z,95372.34
2023-07-04T15:53:44.070Z,95378.28
2023-07-04T15:56:18.269Z,95375.84
2023-07-04T15:58:45.953Z,95375.28
2023-07-04T16:01:13.803Z,95368.78
2023-07-04T16:03:41.538Z,95368.13
2023-07-04T16:06:10.269Z,95373.63
2023-07-04T16:08:39.874Z,95373.28
2023-07-04T16:11:09.974Z,95362.59
2023-07-04T16:13:37.636Z,95368.81
2023-07-04T16:16:05.542Z,95365.59
2023-07-04T16:18:33.042Z,95369.22
2023-07-04T16:21:01.458Z,95364.19
2023-07-04T16:23:29.968Z,95364.19
2023-07-04T16:25:59.014Z,95373.97
2023-07-04T16:28:26.716Z,95361.72
2023-07-04T16:31:05.234Z,95366.69
2023-07-04T16:33:35.347Z,95373.13
2023-07-04T16:36:05.288Z,95365.84
2023-07-04T16:38:32.803Z,95366.44
2023-07-04T16:41:00.053Z,95367.97
2023-07-04T16:43:27.422Z,95363.94
2023-07-04T16:45:58.201Z,95366.06
2023-07-04T16:48:25.890Z,95368.34
2023-07-04T16:50:59.764Z,95359.78
2023-07-04T16:53:28.967Z,95365.41
2023-07-04T16:56:01.202Z,95359.25
2023-07-04T16:58:31.007Z,95355.97
2023-07-04T17:01:00.879Z,95360.88
2023-07-04T17:03:29.292Z,95355.19
2023-07-04T17:06:06.615Z,95350.75
2023-07-04T17:08:38.435Z,95354.13
2023-07-04T17:11:09.412Z,95347.59
2023-07-04T17:13:43.806Z,95351.53
2023-07-04T17:16:13.733Z,95358.53
2023-07-04T17:18:41.413Z,95360.41
2023-07-04T17:21:10.286Z,95360.44
2023-07-04T17:23:38.349Z,95363.16
2023-07-04T17:26:05.965Z,95365.66
2023-07-04T17:28:35.018Z,95372.13
2023-07-04T17:31:06.126Z,95371.91
2023-07-04T17:33:34.182Z,95369.44
2023-07-04T17:36:06.622Z,95369.78
2023-07-04T17:38:35.537Z,95374.19
2023-07-04T17:41:08.083Z,95377.78
2023-07-04T17:43:36.351Z,95373.97
2023-07-04T17:46:08.924Z,95375.75
2023-07-04T17:48:36.889Z,95364.09
2023-07-04T17:51:10.269Z,95374.31
2023-07-04T17:53:37.944Z,95380.81
2023-07-04T17:56:11.351Z,95376.09
2023-07-04T17:58:41.017Z,95374.16
2023-07-04T18:01:13.521Z,95377.75
2023-07-04T18:03:43.729Z,95372.94
2023-07-04T18:06:12.294Z,95377.75
2023-07-04T18:08:42.333Z,95380.59
2023-07-04T18:11:15.564Z,95369.34
2023-07-04T18:13:44.770Z,95376.41
2023-07-04T18:16:13.446Z,95373.72
2023-07-04T18:18:40.865Z,95385.63
2023-07-04T18:21:11.003Z,95390.34
2023-07-04T18:23:38.143Z,95389.69
2023-07-04T18:26:07.837Z,95403.75
2023-07-04T18:28:38.423Z,95410.25
2023-07-04T18:31:08.030Z,95409.81
2023-07-04T18:33:36.639Z,95411.44
2023-07-04T18:36:15.829Z,95403.09
2023-07-04T18:38:44.522Z,95401.25
2023-07-04T18:41:14.486Z,95395.06
2023-07-04T18:43:41.953Z,95393.94
2023-07-04T18:46:09.660Z,95408.97
2023-07-04T18:48:43.153Z,95410.31
2023-07-04T18:51:19.676Z,95406.09
2023-07-04T18:53:47.556Z,95411.69
2023-07-04T18:56:14.834Z,95406.84
2023-07-04T18:58:43.680Z,95412.94
2023-07-04T19:01:17.466Z,95421.91
2023-07-04T19:03:46.195Z,95422.78
2023-07-04T19:06:17.471Z,95416.44
2023-07-04T19:08:46.916Z,95429.47
2023-07-04T19:11:16.906Z,95427.66
2023-07-04T19:14:09.940Z,95438.03
2023-07-04T19:16:55.444Z,95431.72
2023-07-04T19:19:37.450Z,95423.66
2023-07-04T19:22:08.485Z,95436.03
2023-07-04T19:24:38.384Z,95432.16
2023-07-04T19:27:08.198Z,95428.53
2023-07-04T19:29:35.664Z,95429.03
2023-07-04T19:32:03.249Z,95425.06
2023-07-04T19:34:30.909Z,95424.97
2023-07-04T19:36:58.681Z,95421.03
2023-07-04T19:39:27.659Z,95415.69
2023-07-04T19:41:55.084Z,95421.44
2023-07-04T19:44:22.926Z,95415.00
2023-07-04T19:46:50.424Z,95432.34
2023-07-04T19:49:18.888Z,95421.03
2023-07-04T19:51:46.587Z,95431.06
2023-07-04T19:54:14.313Z,95437.25
2023-07-04T19:56:41.830Z,95436.19
2023-07-04T19:59:09.207Z,95449.22
2023-07-04T20:01:37.557Z,95446.19
2023-07-04T20:04:05.510Z,95442.28
2023-07-04T20:06:34.226Z,95443.03
2023-07-04T20:09:01.886Z,95448.84
2023-07-04T20:11:29.224Z,95440.13
2023-07-04T20:13:56.650Z,95433.03
2023-07-04T20:16:30.392Z,95437.78
2023-07-04T20:18:58.575Z,95438.75
2023-07-04T20:21:27.511Z,95435.38
2023-07-04T20:23:54.975Z,95427.63
2023-07-04T20:26:22.769Z,95430.56
2023-07-04T20:28:50.252Z,95430.03
2023-07-04T20:31:17.940Z,95431.94
2023-07-04T20:33:45.546Z,95423.75
2023-07-04T20:36:12.802Z,95428.94
2023-07-04T20:38:40.981Z,95438.84
2023-07-04T20:41:10.883Z,95440.44
2023-07-04T20:43:38.157Z,95440.00
2023-07-04T20:46:06.418Z,95444.66
2023-07-04T20:48:34.558Z,95444.16
2023-07-04T20:51:05.470Z,95431.34
2023-07-04T20:53:32.915Z,95434.63
2023-07-04T20:56:00.769Z,95445.56
2023-07-04T20:58:28.105Z,95438.31
2023-07-04T21:00:55.757Z,95441.59
2023-07-04T21:03:24.802Z,95436.94
2023-07-04T21:05:56.207Z,95444.72
2023-07-04T21:08:24.674Z,95437.78
2023-07-04T21:11:04.129Z,95443.59
2023-07-04T21:13:33.430Z,95435.38
2023-07-04T21:16:05.571Z,95433.53
2023-07-04T21:18:33.420Z,95425.66
2023-07-04T21:21:00.761Z,95434.94
2023-07-04T21:23:27.937Z,95439.69
2023-07-04T21:26:05.478Z,95446.84
2023-07-04T21:28:32.726Z,95444.56
2023-07-04T21:31:10.610Z,95449.38
2023-07-04T21:33:39.795Z,95451.03
2023-07-04T21:36:08.216Z,95445.44
2023-07-04T21:38:38.435Z,95437.31
2023-07-04T21:41:07.400Z,95446.09
2023-07-04T21:43:34.685Z,95453.38
2023-07-04T21:46:05.732Z,95460.03
2023-07-04T21:48:33.395Z,95461.03
2023-07-04T21:51:02.458Z,95460.94
2023-07-04T21:53:29.582Z,95464.97
2023-07-04T21:55:56.997Z,95460.16
2023-07-04T21:58:25.028Z,95468.34
2023-07-04T22:00:52.520Z,95465.84
2023-07-04T22:03:20.606Z,95458.41
2023-07-04T22:05:48.331Z,95466.47
2023-07-04T22:08:18.383Z,95447.38
2023-07-04T22:10:56.478Z,95452.34
2023-07-04T22:13:28.150Z,95446.84
2023-07-04T22:15:55.611Z,95456.13
2023-07-04T22:18:22.993Z,95445.22
2023-07-04T22:20:50.189Z,95446.38
2023-07-04T22:23:17.544Z,95446.09
2023-07-04T22:25:44.722Z,95437.72
2023-07-04T22:28:11.932Z,95437.63
2023-07-04T22:30:39.167Z,95428.44
2023-07-04T22:33:06.627Z,95441.19
2023-07-04T22:35:36.120Z,95438.41
2023-07-04T22:38:03.353Z,95434.16
2023-07-04T22:40:30.517Z,95431.88
2023-07-04T22:42:57.791Z,95438.13
2023-07-04T22:45:24.956Z,95434.19
2023-07-04T22:47:52.093Z,95435.97
2023-07-04T22:50:21.855Z,95433.03
2023-07-04T22:52:49.382Z,95423.50
2023-07-04T22:55:16.804Z,95421.88
2023-07-04T22:57:44.061Z,95426.81
2023-07-04T23:00:12.361Z,95426.00
2023-07-04T23:02:39.720Z,95428.16
2023-07-04T23:05:07.212Z,95423.25
2023-07-04T23:07:34.363Z,95421.44
2023-07-04T23:10:02.243Z,95414.97
2023-07-04T23:12:29.415Z,95423.16
2023-07-04T23:14:56.698Z,95415.72
2023-07-04T23:17:23.925Z,95409.28
2023-07-04T23:19:51.309Z,95396.50
2023-07-04T23:22:18.536Z,95401.19
2023-07-04T23:24:45.701Z,95403.00
2023-07-04T23:27:12.954Z,95402.03
2023-07-04T23:29:40.109Z,95395.09
2023-07-04T23:32:07.741Z,95389.94
2023-07-04T23:34:34.931Z,95391.56
2023-07-04T23:37:02.146Z,95398.28
2023-07-04T23:39:29.254Z,95389.97
2023-07-04T23:41:56.568Z,95384.53
2023-07-04T23:44:23.722Z,95381.47
2023-07-04T23:46:50.984Z,95373.22
